Time;durP1;ratioP1;P1;durP2;ratioP2;P2;SDS_P1;SDS_P2;PMS_P1;PMS_P2;Temp;Humidity;BMP_temperature;BMP_pressure;BME280_temperature;BME280_humidity;BME280_pressure;Samples;Min_cycle;Max_cycle;Signal;HPM_P1;HPM_P2
2021/08/16 00:01:51;;;;;;;4.50;2.40;;;;;;;35.10;31.37;97658.16;5053531;28;20040;-82
2021/08/16 00:04:17;;;;;;;3.83;2.30;;;;;;;35.45;31.39;97660.44;5066956;28;20041;-81
2021/08/16 00:06:43;;;;;;;4.32;2.97;;;;;;;35.29;31.75;97659.16;5051836;28;20037;-81
2021/08/16 00:09:10;;;;;;;3.30;2.60;;;;;;;35.07;31.87;97662.03;5056754;28;20029;-81
2021/08/16 00:11:37;;;;;;;3.75;3.13;;;;;;;33.50;34.39;97666.94;5064751;28;20037;-82
2021/08/16 00:14:03;;;;;;;4.60;2.80;;;;;;;33.26;34.41;97670.94;5052645;28;20032;-82
2021/08/16 00:16:32;;;;;;;3.92;3.08;;;;;;;34.10;33.55;97668.59;5057976;28;20075;-81
2021/08/16 00:18:58;;;;;;;4.60;3.03;;;;;;;34.20;33.28;97661.34;5060157;28;20091;-81
2021/08/16 00:21:24;;;;;;;3.38;3.05;;;;;;;33.94;33.59;97664.34;5054645;28;20033;-82
2021/08/16 00:23:50;;;;;;;5.03;3.95;;;;;;;34.18;32.97;97658.25;5058770;28;20036;-81
2021/08/16 00:26:16;;;;;;;3.50;2.88;;;;;;;33.75;33.79;97654.69;5055388;28;20047;-82
2021/08/16 00:28:42;;;;;;;3.47;3.17;;;;;;;33.43;34.55;97654.75;5065902;28;20040;-82
2021/08/16 00:31:08;;;;;;;3.90;3.15;;;;;;;34.05;33.23;97642.41;5052844;28;20432;-82
2021/08/16 00:33:34;;;;;;;3.10;2.80;;;;;;;34.37;33.07;97651.56;5060184;28;20141;-82
2021/08/16 00:36:01;;;;;;;3.30;3.03;;;;;;;34.06;32.95;97646.81;5052436;28;20108;-81
2021/08/16 00:38:27;;;;;;;3.28;2.72;;;;;;;33.52;33.55;97644.44;5051231;28;20029;-82
2021/08/16 00:40:54;;;;;;;3.40;3.10;;;;;;;33.14;34.46;97642.91;5059288;28;20033;-82
2021/08/16 00:43:20;;;;;;;3.33;3.00;;;;;;;33.81;33.63;97632.72;5053089;28;20500;-81
2021/08/16 00:45:47;;;;;;;3.90;3.20;;;;;;;34.44;32.99;97639.66;5062892;28;20043;-82
2021/08/16 00:48:13;;;;;;;2.65;2.30;;;;;;;34.91;31.13;97643.63;5063831;28;20063;-82
2021/08/16 00:50:41;;;;;;;2.88;2.60;;;;;;;35.50;30.61;97651.09;5062570;28;20489;-82
2021/08/16 00:53:07;;;;;;;3.28;2.35;;;;;;;36.12;29.37;97652.47;5062103;28;20033;-82
2021/08/16 00:55:35;;;;;;;2.75;2.10;;;;;;;36.64;28.50;97654.00;5065147;28;20041;-82
2021/08/16 00:58:02;;;;;;;4.70;2.20;;;;;;;36.32;29.02;97649.22;5064780;28;20067;-82
2021/08/16 01:00:28;;;;;;;3.00;2.63;;;;;;;36.08;29.30;97643.41;5055934;28;20033;-82
2021/08/16 01:02:54;;;;;;;2.80;2.20;;;;;;;36.06;29.75;97646.78;5056135;28;20037;-82
2021/08/16 01:05:21;;;;;;;4.10;3.35;;;;;;;34.85;31.01;97624.91;5058104;28;20048;-82
2021/08/16 01:07:49;;;;;;;3.58;2.38;;;;;;;34.70;31.52;97614.53;5064679;28;20497;-82
2021/08/16 01:10:16;;;;;;;3.17;2.88;;;;;;;34.15;32.35;97613.66;5056256;28;20068;-82
2021/08/16 01:12:43;;;;;;;2.85;2.55;;;;;;;34.97;31.32;97621.56;5068491;28;20044;-81
2021/08/16 01:15:11;;;;;;;2.95;2.55;;;;;;;34.95;30.87;97617.66;5056180;28;20090;-82
2021/08/16 01:17:39;;;;;;;3.58;2.70;;;;;;;34.09;32.88;97622.22;5060844;28;20079;-81
2021/08/16 01:20:08;;;;;;;2.80;2.42;;;;;;;34.40;31.97;97615.56;5069255;28;20104;-82
2021/08/16 01:22:35;;;;;;;3.55;2.95;;;;;;;33.87;33.02;97607.84;5057773;28;20033;-82
2021/08/16 01:25:03;;;;;;;3.05;2.20;;;;;;;33.73;33.79;97603.13;5059279;28;20064;-81
2021/08/16 01:27:29;;;;;;;3.03;2.70;;;;;;;34.15;32.45;97593.72;5061958;28;20392;-82
2021/08/16 01:30:04;;;;;;;3.08;2.75;;;;;;;34.28;32.12;97585.47;5056089;28;20025;-82
2021/08/16 01:32:31;;;;;;;3.28;2.65;;;;;;;34.04;32.61;97580.22;5069682;28;20032;-82
2021/08/16 01:34:57;;;;;;;4.05;2.88;;;;;;;34.50;32.36;97577.69;5060313;28;20035;-82
2021/08/16 01:37:23;;;;;;;3.25;2.90;;;;;;;34.58;32.24;97578.78;5059119;28;20029;-82
2021/08/16 01:39:49;;;;;;;2.85;2.50;;;;;;;34.38;32.02;97583.94;5067831;28;20115;-81
2021/08/16 01:42:15;;;;;;;2.70;2.33;;;;;;;34.64;31.73;97593.81;5055565;28;20025;-82
2021/08/16 01:44:41;;;;;;;4.32;2.22;;;;;;;34.79;31.59;97598.47;5063558;28;20033;-82
2021/08/16 01:47:07;;;;;;;2.97;2.50;;;;;;;35.00;31.03;97591.97;5067437;28;20041;-82
2021/08/16 01:49:33;;;;;;;2.90;2.60;;;;;;;34.81;31.68;97596.66;5061908;28;20078;-82
2021/08/16 01:51:59;;;;;;;3.17;2.55;;;;;;;33.91;32.60;97592.06;5056726;28;20037;-82
2021/08/16 01:54:25;;;;;;;5.88;2.97;;;;;;;33.75;33.74;97597.75;5055562;28;20052;-82
2021/08/16 01:56:51;;;;;;;4.53;2.70;;;;;;;34.27;32.44;97595.28;5055611;28;20169;-81
2021/08/16 01:59:17;;;;;;;2.60;2.00;;;;;;;34.21;32.61;97589.59;5055256;28;20060;-82
2021/08/16 02:01:43;;;;;;;4.63;2.72;;;;;;;34.20;32.48;97590.88;5057233;28;20513;-82
2021/08/16 02:04:10;;;;;;;3.90;2.95;;;;;;;34.09;32.64;97590.88;5063450;28;20031;-82
2021/08/16 02:06:36;;;;;;;4.07;3.15;;;;;;;33.38;33.44;97587.19;5055451;28;20037;-82
2021/08/16 02:09:03;;;;;;;4.18;2.53;;;;;;;33.87;33.49;97602.16;5054771;28;20117;-82
2021/08/16 02:11:29;;;;;;;4.40;2.67;;;;;;;34.85;31.50;97594.31;5054870;28;20032;-82
2021/08/16 02:13:55;;;;;;;3.28;2.97;;;;;;;34.99;31.32;97616.09;5067819;28;20029;-82
2021/08/16 02:16:21;;;;;;;5.22;4.18;;;;;;;33.84;32.78;97623.16;5064782;28;20091;-82
2021/08/16 02:18:48;;;;;;;3.25;2.63;;;;;;;33.60;33.18;97632.09;5058263;28;20040;-81
2021/08/16 02:21:14;;;;;;;7.43;4.32;;;;;;;34.46;31.83;97650.53;5062534;28;20060;-82
2021/08/16 02:23:40;;;;;;;3.83;2.97;;;;;;;34.96;30.67;97617.13;5059058;28;20033;-82
2021/08/16 02:26:06;;;;;;;2.95;2.60;;;;;;;35.04;30.74;97606.00;5061767;28;20040;-81
2021/08/16 02:28:33;;;;;;;4.13;3.00;;;;;;;35.55;29.83;97605.41;5064583;28;20037;-82
2021/08/16 02:30:59;;;;;;;3.17;2.70;;;;;;;35.59;29.72;97585.94;5055964;28;20033;-82
2021/08/16 02:33:26;;;;;;;3.42;2.70;;;;;;;35.50;30.05;97582.56;5062319;28;20036;-82
2021/08/16 02:35:52;;;;;;;3.70;3.05;;;;;;;35.21;30.32;97567.59;5062937;28;20473;-82
2021/08/16 02:38:18;;;;;;;5.07;2.47;;;;;;;35.33;30.06;97559.75;5054233;28;20502;-82
2021/08/16 02:40:44;;;;;;;3.15;2.30;;;;;;;35.61;29.54;97560.47;5054201;28;20477;-81
2021/08/16 02:43:10;;;;;;;3.03;2.75;;;;;;;35.89;29.02;97586.81;5052412;28;20029;-81
2021/08/16 02:45:36;;;;;;;2.47;2.13;;;;;;;35.99;28.94;97568.06;5054340;28;20033;-82
2021/08/16 02:48:02;;;;;;;3.38;2.40;;;;;;;36.13;28.48;97580.47;5055065;28;20041;-82
2021/08/16 02:50:29;;;;;;;2.45;2.25;;;;;;;35.91;28.57;97574.84;5054835;28;20527;-81
2021/08/16 02:52:55;;;;;;;2.40;2.20;;;;;;;35.92;28.79;97582.91;5055951;28;20101;-82
2021/08/16 02:55:21;;;;;;;5.30;2.50;;;;;;;36.01;28.50;97588.31;5055671;28;20045;-82
2021/08/16 02:57:47;;;;;;;3.05;2.30;;;;;;;36.11;28.58;97585.94;5054121;28;20036;-82
2021/08/16 03:00:14;;;;;;;2.08;1.88;;;;;;;36.00;28.15;97588.88;5054264;28;20040;-82
2021/08/16 03:02:42;;;;;;;2.53;2.00;;;;;;;35.78;28.90;97578.28;5053212;28;20032;-82
2021/08/16 03:05:09;;;;;;;2.97;2.38;;;;;;;35.40;29.29;97579.97;5065557;28;20028;-82
2021/08/16 03:07:35;;;;;;;2.97;2.03;;;;;;;35.39;29.53;97577.63;5056861;28;20405;-82
2021/08/16 03:10:02;;;;;;;1.67;1.58;;;;;;;35.63;28.73;97575.00;5058647;28;20024;-82
2021/08/16 03:12:28;;;;;;;4.63;1.90;;;;;;;36.00;28.14;97581.06;5063650;28;20044;-82
2021/08/16 03:14:54;;;;;;;2.63;2.28;;;;;;;36.27;27.83;97587.16;5055477;28;20035;-82
2021/08/16 03:17:20;;;;;;;1.73;1.63;;;;;;;36.37;27.68;97588.38;5052274;28;20044;-82
2021/08/16 03:19:46;;;;;;;2.50;1.88;;;;;;;36.14;28.30;97579.16;5055099;28;20394;-82
2021/08/16 03:22:12;;;;;;;1.80;1.55;;;;;;;35.89;28.31;97566.81;5057539;28;20557;-82
2021/08/16 03:24:38;;;;;;;2.10;1.75;;;;;;;36.00;28.17;97552.50;5053357;28;20546;-81
2021/08/16 03:27:04;;;;;;;3.38;1.77;;;;;;;35.88;28.01;97555.91;5057506;28;20039;-82
2021/08/16 03:29:30;;;;;;;1.70;1.52;;;;;;;35.99;27.53;97559.50;5062670;28;20025;-81
2021/08/16 03:32:00;;;;;;;2.42;1.88;;;;;;;35.79;28.45;97559.06;5064500;28;20033;-82
2021/08/16 03:34:30;;;;;;;2.50;2.30;;;;;;;35.29;28.85;97560.00;5055328;28;20056;-82
2021/08/16 03:36:57;;;;;;;3.65;1.70;;;;;;;35.53;28.53;97555.81;5054711;28;20778;-82
2021/08/16 03:39:23;;;;;;;2.47;2.28;;;;;;;35.70;28.20;97540.16;5055914;28;20041;-82
2021/08/16 03:41:49;;;;;;;2.17;1.80;;;;;;;35.74;28.17;97528.44;5060759;28;20069;-81
2021/08/16 03:44:15;;;;;;;1.83;1.73;;;;;;;35.25;29.07;97533.03;5067391;28;20431;-82
2021/08/16 03:46:41;;;;;;;4.00;2.13;;;;;;;34.78;29.82;97517.81;5053172;28;20044;-82
2021/08/16 03:49:07;;;;;;;2.63;1.75;;;;;;;34.55;30.70;97514.22;5053252;28;20098;-81
2021/08/16 03:51:33;;;;;;;2.58;1.70;;;;;;;35.27;29.18;97507.59;5053824;28;20033;-81
2021/08/16 03:53:59;;;;;;;2.38;1.80;;;;;;;35.66;28.23;97505.38;5054496;28;20033;-82
2021/08/16 03:56:25;;;;;;;6.22;1.88;;;;;;;36.02;27.77;97509.06;5055651;28;20033;-81
2021/08/16 03:58:51;;;;;;;2.40;1.70;;;;;;;36.27;27.42;97501.38;5053386;28;20048;-82
2021/08/16 04:01:17;;;;;;;2.30;2.17;;;;;;;35.24;28.80;97485.84;5057542;28;20043;-81
2021/08/16 04:03:44;;;;;;;2.58;2.03;;;;;;;35.27;29.32;97488.41;5060741;28;20104;-82
2021/08/16 04:06:10;;;;;;;2.10;1.80;;;;;;;35.50;28.90;97486.25;5069634;28;20029;-82
2021/08/16 04:08:39;;;;;;;1.63;1.52;;;;;;;35.93;28.18;97475.88;5052685;28;20032;-82
2021/08/16 04:11:06;;;;;;;2.15;1.95;;;;;;;36.16;28.05;97478.56;5061596;28;20504;-82
2021/08/16 04:13:32;;;;;;;1.55;1.42;;;;;;;36.43;27.33;97483.31;5061090;28;20051;-82
2021/08/16 04:15:58;;;;;;;2.45;1.85;;;;;;;36.33;27.90;97482.88;5062143;28;20108;-82
2021/08/16 04:18:25;;;;;;;2.92;1.90;;;;;;;35.71;28.71;97493.13;5063650;28;20040;-82
2021/08/16 04:20:51;;;;;;;2.25;1.90;;;;;;;35.05;30.08;97491.34;5064684;28;20036;-81
2021/08/16 04:23:17;;;;;;;1.83;1.73;;;;;;;35.67;29.13;97498.34;5076403;28;20028;-81
2021/08/16 04:25:43;;;;;;;2.55;1.77;;;;;;;36.27;28.16;97499.28;5067050;28;20174;-81
2021/08/16 04:28:09;;;;;;;5.10;2.33;;;;;;;35.14;29.89;97493.91;5076186;28;20036;-81
2021/08/16 04:30:35;;;;;;;2.50;1.60;;;;;;;35.35;29.74;97491.47;5063087;28;20048;-81
2021/08/16 04:33:01;;;;;;;2.00;1.90;;;;;;;35.26;30.11;97488.94;5061462;28;20392;-81
2021/08/16 04:35:27;;;;;;;2.05;1.73;;;;;;;35.06;30.86;97480.69;5076048;28;20066;-81
2021/08/16 04:37:53;;;;;;;1.75;1.65;;;;;;;35.89;30.21;97483.94;5070615;28;20024;-81
2021/08/16 04:40:19;;;;;;;5.53;2.50;;;;;;;36.48;29.14;97483.25;5056795;28;20045;-81
2021/08/16 04:42:46;;;;;;;1.73;1.60;;;;;;;36.12;29.52;97480.94;5060531;28;20094;-81
2021/08/16 04:45:13;;;;;;;2.95;1.75;;;;;;;35.80;30.65;97480.63;5062058;28;20033;-81
2021/08/16 04:47:43;;;;;;;1.98;1.70;;;;;;;36.25;29.33;97472.50;5064991;28;20057;-82
2021/08/16 04:50:09;;;;;;;2.25;1.63;;;;;;;36.88;28.88;97472.97;5057823;28;20079;-82
2021/08/16 04:52:35;;;;;;;1.67;1.58;;;;;;;37.37;28.24;97470.88;5072312;28;20028;-82
2021/08/16 04:55:01;;;;;;;2.67;1.70;;;;;;;37.55;27.81;97469.38;5059781;28;20455;-82
2021/08/16 04:57:34;;;;;;;1.35;1.23;;;;;;;37.63;27.12;97482.53;5060617;28;20566;-82
2021/08/16 05:00:00;;;;;;;2.45;1.83;;;;;;;36.85;28.76;97491.25;5062830;28;20032;-83
2021/08/16 05:02:26;;;;;;;1.70;1.60;;;;;;;36.74;28.68;97494.19;5057547;28;20033;-82
2021/08/16 05:04:58;;;;;;;2.22;1.90;;;;;;;36.57;28.82;97480.06;5058144;28;20091;-82
2021/08/16 05:07:24;;;;;;;1.90;1.73;;;;;;;36.19;29.29;97491.81;5065102;28;20562;-80
2021/08/16 05:09:51;;;;;;;2.70;1.92;;;;;;;35.29;30.60;97494.34;5075476;28;20480;-79
2021/08/16 05:12:17;;;;;;;4.13;1.98;;;;;;;35.00;30.48;97499.88;5059077;28;20119;-80
2021/08/16 05:14:43;;;;;;;2.97;2.08;;;;;;;35.12;30.90;97492.88;5055428;28;20037;-80
2021/08/16 05:17:09;;;;;;;2.20;2.00;;;;;;;35.08;30.22;97484.56;5062544;28;20043;-83
2021/08/16 05:19:37;;;;;;;1.52;1.42;;;;;;;35.44;29.61;97474.06;5068243;28;20030;-83
2021/08/16 05:22:07;;;;;;;1.75;1.40;;;;;;;36.05;29.24;97485.94;5067814;28;20032;-83
2021/08/16 05:24:34;;;;;;;2.58;2.10;;;;;;;36.42;28.94;97478.88;5055531;28;20370;-82
2021/08/16 05:27:00;;;;;;;1.70;1.58;;;;;;;36.45;28.61;97475.00;5068734;28;20032;-83
2021/08/16 05:29:26;;;;;;;1.83;1.70;;;;;;;36.69;28.71;97467.19;5075421;28;20446;-82
2021/08/16 05:31:53;;;;;;;1.67;1.45;;;;;;;37.11;28.26;97471.44;5075248;28;20029;-83
2021/08/16 05:34:19;;;;;;;1.70;1.60;;;;;;;37.35;28.62;97464.91;5075323;28;20032;-83
2021/08/16 05:36:45;;;;;;;2.25;1.90;;;;;;;37.24;27.23;97476.50;5075435;28;20086;-82
2021/08/16 05:39:11;;;;;;;1.60;1.50;;;;;;;37.42;28.31;97484.38;5074844;28;20035;-83
2021/08/16 05:41:37;;;;;;;1.48;1.33;;;;;;;37.50;28.19;97488.19;5075116;28;20083;-83
2021/08/16 05:44:03;;;;;;;1.48;1.38;;;;;;;37.23;28.64;97495.00;5070378;28;20029;-83
2021/08/16 05:46:29;;;;;;;1.50;1.40;;;;;;;37.07;29.33;97508.19;5054613;28;20140;-83
2021/08/16 05:48:55;;;;;;;1.90;1.60;;;;;;;37.45;27.75;97514.03;5054745;28;20033;-83
2021/08/16 05:51:21;;;;;;;2.20;2.00;;;;;;;37.61;27.40;97521.63;5053650;28;20033;-83
2021/08/16 05:53:47;;;;;;;2.25;1.73;;;;;;;37.65;29.04;97520.00;5054881;28;20057;-83
2021/08/16 05:56:13;;;;;;;3.22;2.17;;;;;;;37.85;27.67;97518.72;5070133;28;20032;-83
2021/08/16 05:58:39;;;;;;;2.13;1.67;;;;;;;38.20;27.69;97529.16;5074652;28;20034;-83
2021/08/16 06:01:05;;;;;;;2.00;1.63;;;;;;;37.91;26.51;97533.75;5075040;28;20028;-83
2021/08/16 06:03:31;;;;;;;2.10;1.60;;;;;;;38.34;27.40;97536.53;5074722;28;20112;-83
2021/08/16 06:05:57;;;;;;;2.10;1.90;;;;;;;37.71;29.21;97546.53;5074680;28;20037;-83
2021/08/16 06:08:23;;;;;;;2.55;1.58;;;;;;;37.65;27.93;97548.66;5074533;28;20499;-83
2021/08/16 06:10:49;;;;;;;1.67;1.58;;;;;;;38.26;26.16;97555.66;5072863;28;20081;-82
2021/08/16 06:13:15;;;;;;;2.90;1.98;;;;;;;38.98;24.99;97552.41;5074123;28;20029;-83
2021/08/16 06:15:42;;;;;;;1.73;1.63;;;;;;;39.22;24.67;97545.72;5074371;28;20074;-82
2021/08/16 06:18:08;;;;;;;2.10;1.90;;;;;;;38.20;26.37;97552.09;5084916;28;20033;-82
2021/08/16 06:20:34;;;;;;;2.33;1.63;;;;;;;37.68;27.87;97559.06;5063911;28;20033;-82
2021/08/16 06:23:00;;;;;;;2.13;1.88;;;;;;;36.32;28.49;97569.16;5054261;28;20028;-82
2021/08/16 06:25:26;;;;;;;2.47;2.03;;;;;;;37.09;29.13;97565.69;5053941;28;20480;-82
2021/08/16 06:27:52;;;;;;;2.17;1.88;;;;;;;38.18;28.04;97569.88;5054295;28;20040;-82
2021/08/16 06:30:18;;;;;;;2.83;1.52;;;;;;;37.96;27.79;97570.19;5070607;28;20032;-82
2021/08/16 06:32:45;;;;;;;2.10;1.92;;;;;;;37.75;27.80;97572.00;5072709;28;20032;-82
2021/08/16 06:35:14;;;;;;;1.92;1.80;;;;;;;38.02;27.64;97570.84;5074196;28;20043;-82
2021/08/16 06:37:42;;;;;;;2.60;2.28;;;;;;;36.36;29.58;97581.13;5074355;28;20031;-82
2021/08/16 06:40:10;;;;;;;4.43;2.40;;;;;;;35.63;30.61;97589.28;5073621;28;20025;-82
2021/08/16 06:42:36;;;;;;;4.15;3.08;;;;;;;34.59;32.99;97590.94;5073720;28;20032;-82
2021/08/16 06:45:03;;;;;;;2.97;2.70;;;;;;;34.81;32.77;97593.81;5073415;28;20032;-82
2021/08/16 06:47:29;;;;;;;3.60;2.78;;;;;;;36.82;29.54;97597.41;5073409;28;20056;-82
2021/08/16 06:49:55;;;;;;;2.78;2.58;;;;;;;37.57;27.60;97601.41;5073715;28;20548;-82
2021/08/16 06:52:21;;;;;;;2.80;2.60;;;;;;;37.80;26.68;97602.69;5073137;28;20052;-82
2021/08/16 06:54:47;;;;;;;2.55;2.00;;;;;;;38.02;26.77;97611.00;5073243;28;20028;-82
2021/08/16 06:57:13;;;;;;;2.83;2.53;;;;;;;38.17;26.09;97599.84;5073756;28;20028;-82
2021/08/16 06:59:39;;;;;;;4.38;2.72;;;;;;;38.34;25.46;97593.91;5073683;28;20037;-82
2021/08/16 07:02:05;;;;;;;3.72;2.92;;;;;;;38.33;25.91;97598.09;5073306;28;20115;-82
2021/08/16 07:04:33;;;;;;;2.70;2.50;;;;;;;38.83;25.37;97597.31;5073468;28;20050;-82
2021/08/16 07:06:59;;;;;;;2.38;2.17;;;;;;;38.75;24.93;97594.31;5073490;28;20063;-82
2021/08/16 07:09:25;;;;;;;2.95;2.17;;;;;;;39.14;25.13;97590.78;5073149;28;20476;-82
2021/08/16 07:11:51;;;;;;;2.53;2.03;;;;;;;39.62;24.96;97589.63;5073383;28;20028;-82
2021/08/16 07:14:18;;;;;;;2.58;2.05;;;;;;;40.19;24.43;97590.81;5073286;28;20446;-82
2021/08/16 07:16:44;;;;;;;2.22;2.03;;;;;;;40.52;23.39;97587.16;5073314;28;20062;-81
2021/08/16 07:19:10;;;;;;;2.00;1.90;;;;;;;40.48;23.87;97599.03;5072127;28;20043;-82
2021/08/16 07:21:36;;;;;;;2.55;1.88;;;;;;;39.86;24.81;97589.41;5072086;28;20024;-82
2021/08/16 07:24:02;;;;;;;1.65;1.55;;;;;;;39.08;24.63;97581.47;5072998;28;20037;-82
2021/08/16 07:26:28;;;;;;;3.15;1.92;;;;;;;38.86;24.98;97601.97;5073067;28;20032;-82
2021/08/16 07:28:54;;;;;;;4.13;2.30;;;;;;;39.13;25.40;97604.38;5073312;28;20472;-82
2021/08/16 07:31:20;;;;;;;2.17;1.98;;;;;;;39.42;24.71;97601.78;5073222;28;20025;-82
2021/08/16 07:33:46;;;;;;;2.70;2.08;;;;;;;38.60;26.77;97609.13;5073052;28;20500;-82
2021/08/16 07:36:12;;;;;;;4.60;2.00;;;;;;;38.94;26.52;97597.91;5073255;28;20415;-82
2021/08/16 07:38:38;;;;;;;2.60;1.90;;;;;;;39.07;24.96;97597.94;5067326;28;20484;-82
2021/08/16 07:41:05;;;;;;;4.30;1.95;;;;;;;38.92;24.90;97594.81;5073119;28;20017;-82
2021/08/16 07:43:31;;;;;;;2.38;2.17;;;;;;;39.00;24.71;97604.31;5072760;28;20051;-81
2021/08/16 07:45:57;;;;;;;2.25;2.05;;;;;;;38.86;26.06;97608.47;5072502;28;20117;-82
2021/08/16 07:48:23;;;;;;;2.40;2.20;;;;;;;38.20;26.00;97607.38;5072838;28;20053;-82
2021/08/16 07:50:49;;;;;;;3.22;2.55;;;;;;;38.28;25.82;97610.41;5068786;28;20021;-82
2021/08/16 07:53:15;;;;;;;2.65;2.45;;;;;;;38.74;24.72;97614.97;5052955;28;20032;-82
2021/08/16 07:55:41;;;;;;;3.47;2.13;;;;;;;39.04;24.82;97622.03;5073519;28;20035;-82
2021/08/16 07:58:07;;;;;;;2.33;2.05;;;;;;;39.17;24.10;97619.19;5077418;28;20033;-81
2021/08/16 08:00:33;;;;;;;2.97;2.30;;;;;;;39.12;25.24;97625.00;5076934;28;20021;-81
2021/08/16 08:02:59;;;;;;;3.28;1.85;;;;;;;39.23;25.27;97619.84;5076945;28;20112;-82
2021/08/16 08:05:25;;;;;;;2.33;1.80;;;;;;;39.04;25.12;97616.28;5076610;28;20054;-82
2021/08/16 08:07:52;;;;;;;3.13;2.17;;;;;;;38.77;26.91;97622.50;5075677;28;20032;-82
2021/08/16 08:10:20;;;;;;;2.90;1.90;;;;;;;39.08;26.30;97624.56;5077261;28;20108;-81
2021/08/16 08:12:47;;;;;;;1.88;1.77;;;;;;;39.15;26.00;97627.59;5076585;28;20033;-82
2021/08/16 08:15:15;;;;;;;2.97;2.13;;;;;;;38.92;26.88;97628.50;5076572;28;20072;-82
2021/08/16 08:17:41;;;;;;;2.10;1.90;;;;;;;37.87;27.61;97625.81;5076452;28;20029;-82
2021/08/16 08:20:08;;;;;;;2.53;2.30;;;;;;;37.16;28.80;97630.16;5056218;28;20025;-81
2021/08/16 08:22:35;;;;;;;2.85;2.17;;;;;;;37.13;28.85;97629.16;5056471;28;20029;-82
2021/08/16 08:25:02;;;;;;;2.65;2.10;;;;;;;37.28;29.58;97620.94;5056333;28;20507;-82
2021/08/16 08:27:28;;;;;;;3.10;2.42;;;;;;;37.75;28.67;97624.34;5057226;28;20460;-81
2021/08/16 08:29:54;;;;;;;2.53;2.33;;;;;;;37.81;27.77;97630.78;5076496;28;20037;-81
2021/08/16 08:32:20;;;;;;;4.15;2.42;;;;;;;36.85;28.78;97639.28;5074966;28;20032;-82
2021/08/16 08:34:47;;;;;;;3.63;2.65;;;;;;;37.66;27.92;97623.94;5075986;28;20503;-82
2021/08/16 08:37:14;;;;;;;3.50;2.60;;;;;;;38.84;26.19;97634.09;5076204;28;20455;-81
2021/08/16 08:39:41;;;;;;;4.00;2.47;;;;;;;39.21;25.82;97622.50;5076342;28;20039;-82
2021/08/16 08:42:11;;;;;;;3.08;2.88;;;;;;;38.49;27.10;97635.13;5076344;28;20029;-82
2021/08/16 08:44:38;;;;;;;5.20;2.67;;;;;;;39.18;25.73;97629.38;5069166;28;20041;-82
2021/08/16 08:47:05;;;;;;;2.38;1.80;;;;;;;39.54;25.68;97629.72;5075847;28;20036;-82
2021/08/16 08:49:32;;;;;;;3.45;2.30;;;;;;;39.65;25.79;97626.69;5075417;28;20481;-81
2021/08/16 08:51:59;;;;;;;2.53;2.15;;;;;;;39.32;26.37;97621.53;5062308;28;20040;-82
2021/08/16 08:54:28;;;;;;;2.25;2.13;;;;;;;39.30;26.11;97613.47;5056172;28;20029;-82
2021/08/16 08:56:56;;;;;;;1.98;1.80;;;;;;;40.03;25.40;97623.59;5074733;28;20110;-82
2021/08/16 08:59:23;;;;;;;2.33;1.83;;;;;;;40.18;24.26;97627.44;5076098;28;20024;-82
2021/08/16 09:01:50;;;;;;;2.28;1.95;;;;;;;40.18;24.58;97615.13;5075734;28;20029;-82
2021/08/16 09:04:16;;;;;;;1.80;1.67;;;;;;;39.90;24.61;97624.34;5075808;28;20052;-82
2021/08/16 09:06:44;;;;;;;2.33;1.70;;;;;;;39.73;25.07;97618.94;5075137;28;20399;-82
2021/08/16 09:09:11;;;;;;;3.15;1.80;;;;;;;40.38;24.45;97618.06;5076032;28;20032;-82
2021/08/16 09:11:37;;;;;;;1.60;1.50;;;;;;;40.93;24.07;97621.78;5076119;28;20365;-82
2021/08/16 09:14:05;;;;;;;1.60;1.50;;;;;;;41.08;23.41;97619.03;5075597;28;20029;-82
2021/08/16 09:16:36;;;;;;;2.67;1.85;;;;;;;40.94;23.57;97617.56;5075173;28;20086;-82
2021/08/16 09:19:20;;;;;;;2.70;1.63;;;;;;;41.09;23.99;97608.28;5068910;28;20052;-82
2021/08/16 09:22:06;;;;;;;1.50;1.40;;;;;;;40.86;25.47;97604.44;5067801;28;20086;-82
2021/08/16 09:24:36;;;;;;;1.90;1.73;;;;;;;41.30;22.64;97604.06;5065687;28;20033;-82
2021/08/16 09:27:03;;;;;;;1.90;1.47;;;;;;;41.00;23.64;97608.78;5075227;28;20028;-82
2021/08/16 09:29:29;;;;;;;5.03;1.65;;;;;;;40.69;25.03;97605.59;5075549;28;20278;-82
2021/08/16 09:32:05;;;;;;;2.35;1.80;;;;;;;40.66;24.75;97597.28;5075333;28;20027;-82
2021/08/16 09:34:32;;;;;;;1.40;1.13;;;;;;;40.76;23.71;97595.47;5056933;28;20090;-82
2021/08/16 09:37:02;;;;;;;1.77;1.50;;;;;;;40.41;24.82;97596.81;5068772;28;20036;-82
2021/08/16 09:39:32;;;;;;;2.03;1.27;;;;;;;40.98;22.56;97594.94;5075455;28;20038;-82
2021/08/16 09:42:03;;;;;;;1.95;1.33;;;;;;;41.45;24.65;97591.88;5075312;28;20094;-82
2021/08/16 09:44:30;;;;;;;2.20;1.10;;;;;;;41.86;24.62;97588.88;5075504;28;20044;-82
2021/08/16 09:47:06;;;;;;;3.10;1.52;;;;;;;42.28;23.20;97586.56;5074588;28;20101;-82
2021/08/16 09:49:33;;;;;;;1.40;1.30;;;;;;;42.57;23.05;97585.13;5074834;28;20373;-82
2021/08/16 09:52:08;;;;;;;2.38;1.40;;;;;;;42.33;20.62;97584.84;5074839;28;20373;-82
2021/08/16 09:54:35;;;;;;;1.73;1.00;;;;;;;41.95;20.35;97590.44;5070786;28;20093;-82
2021/08/16 09:57:04;;;;;;;1.27;1.10;;;;;;;41.80;21.43;97576.72;5066527;28;20094;-82
2021/08/16 09:59:33;;;;;;;1.42;1.00;;;;;;;40.84;20.72;97584.03;5073146;28;20051;-82
2021/08/16 10:02:00;;;;;;;1.25;1.15;;;;;;;40.51;22.07;97574.13;5074734;28;20093;-82
2021/08/16 10:04:28;;;;;;;1.15;1.02;;;;;;;40.07;23.45;97581.66;5074717;28;20036;-82
2021/08/16 10:06:57;;;;;;;4.55;1.33;;;;;;;40.11;22.71;97578.41;5074625;28;20039;-82
2021/08/16 10:09:24;;;;;;;2.58;1.30;;;;;;;39.79;22.79;97572.81;5074263;28;20028;-81
2021/08/16 10:11:51;;;;;;;2.72;0.93;;;;;;;40.12;23.12;97583.59;5074471;28;20024;-82
2021/08/16 10:14:24;;;;;;;1.60;1.20;;;;;;;40.29;22.95;97583.22;5074502;28;20044;-82
2021/08/16 10:16:53;;;;;;;1.00;0.90;;;;;;;40.44;22.19;97569.06;5058764;28;20163;-82
2021/08/16 10:19:23;;;;;;;1.17;1.08;;;;;;;41.18;21.65;97567.44;5062429;28;20079;-82
2021/08/16 10:21:51;;;;;;;1.30;1.00;;;;;;;41.21;22.09;97566.31;5074030;28;20033;-82
2021/08/16 10:24:19;;;;;;;0.93;0.90;;;;;;;41.49;21.44;97566.34;5073938;28;20106;-82
2021/08/16 10:27:04;;;;;;;1.75;1.20;;;;;;;40.68;21.66;97565.84;5073880;28;20033;-82
2021/08/16 10:29:31;;;;;;;1.90;1.48;;;;;;;40.16;21.23;97563.16;5074129;28;20504;-82
2021/08/16 10:31:59;;;;;;;1.27;1.17;;;;;;;40.45;20.97;97565.59;5073633;28;20027;-82
2021/08/16 10:34:27;;;;;;;1.60;1.50;;;;;;;40.08;23.52;97553.63;5074212;28;20090;-82
2021/08/16 10:37:01;;;;;;;1.77;1.30;;;;;;;40.21;22.67;97557.28;5074293;28;20032;-82
2021/08/16 10:39:58;;;;;;;1.23;1.00;;;;;;;40.43;22.03;97556.75;5073977;28;20028;-82
2021/08/16 10:42:37;;;;;;;2.22;1.00;;;;;;;40.35;22.07;97555.13;5065822;28;20097;-82
2021/08/16 10:45:04;;;;;;;1.33;1.00;;;;;;;40.67;21.53;97542.03;5072911;28;20064;-82
2021/08/16 10:47:32;;;;;;;1.67;0.93;;;;;;;40.58;21.85;97541.75;5073736;28;20079;-83
2021/08/16 10:50:18;;;;;;;0.98;0.98;;;;;;;41.20;21.35;97544.59;5073490;28;20028;-82
2021/08/16 10:52:45;;;;;;;1.42;0.93;;;;;;;41.90;20.51;97542.34;5073689;28;20059;-82
2021/08/16 10:55:17;;;;;;;1.58;1.40;;;;;;;41.98;19.92;97538.16;5073610;28;20067;-82
2021/08/16 10:57:44;;;;;;;0.82;0.70;;;;;;;41.57;20.50;97532.53;5073620;28;20029;-82
2021/08/16 11:00:13;;;;;;;2.38;0.90;;;;;;;40.60;21.20;97539.06;5073346;28;20480;-82
2021/08/16 11:02:41;;;;;;;1.00;0.93;;;;;;;40.60;21.59;97536.97;5073230;28;20024;-82
2021/08/16 11:05:09;;;;;;;1.42;1.10;;;;;;;41.31;21.94;97539.31;5073876;28;20021;-82
2021/08/16 11:07:35;;;;;;;2.28;1.40;;;;;;;41.19;20.87;97534.41;5073425;28;20480;-83
2021/08/16 11:10:07;;;;;;;1.63;1.13;;;;;;;41.17;21.05;97537.84;5073522;28;20103;-82
2021/08/16 11:12:45;;;;;;;1.35;1.25;;;;;;;40.79;20.90;97538.88;5072188;28;20033;-82
2021/08/16 11:15:17;;;;;;;5.80;1.02;;;;;;;40.92;21.86;97542.47;5061221;28;20072;-82
2021/08/16 11:17:43;;;;;;;1.48;1.10;;;;;;;41.43;21.33;97525.34;5056289;28;20024;-83
2021/08/16 11:20:15;;;;;;;1.45;0.90;;;;;;;41.55;20.95;97525.81;5068987;28;20025;-82
2021/08/16 11:22:49;;;;;;;2.38;1.25;;;;;;;41.59;20.88;97529.84;5056283;28;20396;-82
2021/08/16 11:25:16;;;;;;;1.88;0.95;;;;;;;41.06;20.64;97538.16;5073228;28;20029;-82
2021/08/16 11:27:43;;;;;;;1.40;1.30;;;;;;;41.10;21.62;97526.28;5073535;28;20032;-82
2021/08/16 11:30:10;;;;;;;1.33;1.08;;;;;;;41.42;21.85;97518.06;5072765;28;20488;-83
2021/08/16 11:32:38;;;;;;;1.55;1.15;;;;;;;41.72;21.57;97517.47;5073177;28;20028;-82
2021/08/16 11:35:06;;;;;;;1.17;1.02;;;;;;;41.87;21.54;97511.78;5073196;28;20116;-82